Lopez Island, WA (98261)

8:18 AM PST on February 12, 2016 (GMT -0800)
Richardson | | Change Station
CLOSE
Current Station
Personal Weather Station
Location: Washington, WA
Elevation: 36 ft
Nearby Weather Stations

Elev 36 ft 48.45 °N, 122.90 °W | Updated 4 minutes ago

Overcast
Overcast
50.8 °F
Feels Like 50.8 °F
N
6.0
Wind Variable Wind from SSE
Gusts 14.0 mph

Today
High -- | Low -- °F
--% Chance of Precip.
Yesterday
High -- | Low -- °F
Precip. -- in
Pressure 30.03 in
Visibility 10.0 miles
Clouds Overcast 700 ft
Dew Point 50 °F
Humidity 95%
Rainfall 0.07 in
Snow Depth Not available.
7:24 AM 5:27 PM
Waxing Crescent, 21% visible
METAR KFHR 121553Z AUTO 14007KT 10SM OVC007 11/09 A3002 RMK AO2 SLP167 T01060094
Pressure 30.03 in
Visibility 10.0 miles
Clouds Overcast 700 ft
Dew Point 50 °F
Humidity 95%
Rainfall 0.07 in
Snow Depth Not available.
7:24 AM 5:27 PM
Waxing Crescent, 21% visible
METAR KFHR 121553Z AUTO 14007KT 10SM OVC007 11/09 A3002 RMK AO2 SLP167 T01060094

10-Day Weather Forecast

Almanac

Astronomy

Feb. 12, 2016 Rise Set
Actual Time
Civil Twilight
Nautical Twilight
Astronomical Twilight
Moon
Length of Visible Light
Length of Day
Tomorrow will be .
, % of the Moon is Illuminated

Today's Extremes

State Highs State Lows

Community

WunderPhotos

Upload Photos

1,892,345 photos uploaded!

WunderBlog® & News

Nearby

Air Quality

  Air Quality AQ Index Pollutant
Not available.

Snow Depth

Station Depth Elevation

Earthquake Activity

City Distance Mag. Time & Date
Minimum magnitude displayed is 2.5.

Coastal Water Temperatures

Place Temperature

Stations

Nearby Weather Stations

Station Location Temp. Windchill Dew Point Humidity Wind Precip. Elev Updated Type
                   

Watches & Warnings

There are currently no watches in effect.